createdAt,value
2022-10-29T00:01:02.994Z,102123.63
2022-10-29T00:03:31.036Z,102120.63
2022-10-29T00:06:01.649Z,102119.78
2022-10-29T00:08:32.119Z,102117.50
2022-10-29T00:11:25.663Z,102123.81
2022-10-29T00:13:55.912Z,102117.50
2022-10-29T00:16:26.622Z,102121.25
2022-10-29T00:18:55.013Z,102120.97
2022-10-29T00:21:25.300Z,102121.38
2022-10-29T00:23:53.473Z,102130.25
2022-10-29T00:26:22.242Z,102118.66
2022-10-29T00:28:55.083Z,102120.94
2022-10-29T00:31:24.795Z,102118.66
2022-10-29T00:33:54.886Z,102114.50
2022-10-29T00:36:27.791Z,102110.66
2022-10-29T00:38:59.414Z,102115.16
2022-10-29T00:41:30.318Z,102114.63
2022-10-29T00:44:22.263Z,102108.38
2022-10-29T00:46:57.734Z,102104.69
2022-10-29T00:49:27.689Z,102101.69
2022-10-29T00:51:57.277Z,102100.84
2022-10-29T00:54:24.882Z,102093.84
2022-10-29T00:56:57.634Z,102097.81
2022-10-29T00:59:26.056Z,102096.22
2022-10-29T01:01:56.064Z,102094.03
2022-10-29T01:04:24.923Z,102088.56
2022-10-29T01:06:53.481Z,102086.97
2022-10-29T01:09:21.603Z,102090.91
2022-10-29T01:12:11.100Z,102088.56
2022-10-29T01:14:44.698Z,102088.00
2022-10-29T01:17:12.547Z,102095.28
2022-10-29T01:20:17.625Z,102099.75
2022-10-29T01:23:00.716Z,102098.41
2022-10-29T01:25:52.766Z,102091.53
2022-10-29T01:28:38.733Z,102097.38
2022-10-29T01:31:15.433Z,102099.06
2022-10-29T01:33:55.335Z,102094.06
2022-10-29T01:36:47.233Z,102098.22
2022-10-29T01:39:37.897Z,102088.59
2022-10-29T01:42:38.792Z,102083.22
2022-10-29T01:45:24.065Z,102091.16
2022-10-29T01:47:59.607Z,102085.56
2022-10-29T01:50:28.223Z,102083.50
2022-10-29T01:52:56.032Z,102079.38
2022-10-29T01:55:31.038Z,102076.72
2022-10-29T01:57:59.828Z,102075.97
2022-10-29T02:00:31.769Z,102070.03
2022-10-29T02:03:18.321Z,102065.97
2022-10-29T02:06:00.956Z,102069.34
2022-10-29T02:08:31.025Z,102067.88
2022-10-29T02:11:12.204Z,102063.41
2022-10-29T02:14:02.297Z,102061.84
2022-10-29T02:16:31.328Z,102052.22
2022-10-29T02:19:00.614Z,102059.66
2022-10-29T02:21:28.262Z,102051.28
2022-10-29T02:23:55.772Z,102054.84
2022-10-29T02:26:24.025Z,102048.72
2022-10-29T02:28:51.964Z,102046.94
2022-10-29T02:31:19.859Z,102049.75
2022-10-29T02:33:47.492Z,102046.09
2022-10-29T02:36:14.943Z,102042.59
2022-10-29T02:38:42.582Z,102046.19
2022-10-29T02:41:10.066Z,102044.78
2022-10-29T02:43:37.662Z,102041.06
2022-10-29T02:46:18.818Z,102035.81
2022-10-29T02:48:46.639Z,102036.00
2022-10-29T02:51:15.623Z,102031.28
2022-10-29T02:53:43.644Z,102034.78
2022-10-29T02:56:11.598Z,102038.66
2022-10-29T02:58:39.808Z,102028.97
2022-10-29T03:01:07.399Z,102035.91
2022-10-29T03:03:35.259Z,102026.97
2022-10-29T03:06:03.937Z,102031.19
2022-10-29T03:08:31.639Z,102024.59
2022-10-29T03:10:59.259Z,102021.78
2022-10-29T03:13:26.868Z,102030.88
2022-10-29T03:15:54.395Z,102018.81
2022-10-29T03:18:21.974Z,102014.28
2022-10-29T03:20:49.957Z,102019.84
2022-10-29T03:23:18.378Z,102024.63
2022-10-29T03:25:55.590Z,102019.31
2022-10-29T03:28:25.729Z,102020.06
2022-10-29T03:30:53.381Z,102024.59
2022-10-29T03:33:21.406Z,102022.00
2022-10-29T03:35:49.696Z,102024.63
2022-10-29T03:38:17.609Z,102031.63
2022-10-29T03:40:45.138Z,102022.63
2022-10-29T03:43:12.683Z,102027.75
2022-10-29T03:45:40.642Z,102024.06
2022-10-29T03:48:08.287Z,102024.16
2022-10-29T03:50:35.852Z,102028.97
2022-10-29T03:53:03.423Z,102036.41
2022-10-29T03:55:31.283Z,102027.75
2022-10-29T03:57:59.653Z,102026.97
2022-10-29T04:00:27.293Z,102024.72
2022-10-29T04:02:55.508Z,102022.81
2022-10-29T04:05:23.535Z,102022.25
2022-10-29T04:07:51.023Z,102020.84
2022-10-29T04:10:18.589Z,102020.09
2022-10-29T04:12:47.133Z,102025.44
2022-10-29T04:15:15.142Z,102029.22
2022-10-29T04:17:42.655Z,102024.22
2022-10-29T04:20:21.168Z,102019.31
2022-10-29T04:28:49.097Z,102028.63
2022-10-29T04:31:17.613Z,102021.69
2022-10-29T04:33:46.254Z,102029.41
2022-10-29T04:36:14.229Z,102028.44
2022-10-29T04:38:42.545Z,102023.06
2022-10-29T04:41:10.099Z,102017.78
2022-10-29T04:43:37.643Z,102024.41
2022-10-29T04:46:05.179Z,102024.84
2022-10-29T04:48:32.648Z,102024.50
2022-10-29T04:51:00.143Z,102027.13
2022-10-29T04:53:27.735Z,102029.47
2022-10-29T04:56:02.254Z,102024.97
2022-10-29T04:58:29.914Z,102026.84
2022-10-29T05:01:06.690Z,102027.69
2022-10-29T05:03:34.597Z,102022.13
2022-10-29T05:06:07.119Z,102024.84
2022-10-29T05:08:35.033Z,102018.75
2022-10-29T05:11:07.056Z,102022.16
2022-10-29T05:13:34.947Z,102010.72
2022-10-29T05:16:03.044Z,102007.66
2022-10-29T05:18:31.086Z,102013.28
2022-10-29T05:20:59.486Z,102009.44
2022-10-29T05:23:27.447Z,102012.94
2022-10-29T05:25:56.254Z,102015.91
2022-10-29T05:28:24.173Z,102017.22
2022-10-29T05:30:53.245Z,102022.13
2022-10-29T05:33:23.284Z,102020.34
2022-10-29T05:35:51.812Z,102016.94
2022-10-29T05:38:20.608Z,102012.72
2022-10-29T05:40:48.493Z,102023.72
2022-10-29T05:43:17.210Z,102025.13
2022-10-29T05:45:45.547Z,102031.03
2022-10-29T05:50:45.998Z,102031.72
2022-10-29T05:53:15.057Z,102028.31
2022-10-29T05:55:43.000Z,102020.31
2022-10-29T05:58:13.196Z,102029.28
2022-10-29T06:00:43.945Z,102031.94
2022-10-29T06:03:20.661Z,102019.84
2022-10-29T06:05:49.860Z,102032.72
2022-10-29T06:08:18.914Z,102035.09
2022-10-29T06:10:46.946Z,102038.78
2022-10-29T06:13:18.488Z,102038.84
2022-10-29T06:15:47.392Z,102039.09
2022-10-29T06:18:15.761Z,102028.00
2022-10-29T06:20:44.118Z,102034.91
2022-10-29T06:23:11.884Z,102024.34
2022-10-29T06:25:39.488Z,102027.66
2022-10-29T06:28:09.667Z,102038.31
2022-10-29T06:30:37.682Z,102032.31
2022-10-29T06:33:05.641Z,102038.19
2022-10-29T06:38:07.772Z,102043.72
2022-10-29T06:40:40.563Z,102042.41
2022-10-29T06:43:12.041Z,102046.44
2022-10-29T06:45:40.186Z,102047.72
2022-10-29T06:48:07.791Z,102046.63
2022-10-29T06:50:35.714Z,102040.66
2022-10-29T06:53:09.895Z,102042.81
2022-10-29T06:55:37.414Z,102048.38
2022-10-29T06:58:14.171Z,102048.78
2022-10-29T07:00:42.809Z,102053.09
2022-10-29T07:03:17.155Z,102054.69
2022-10-29T07:05:45.692Z,102058.75
2022-10-29T07:08:13.904Z,102049.06
2022-10-29T07:10:41.357Z,102046.28
2022-10-29T07:13:10.167Z,102049.88
2022-10-29T07:15:37.708Z,102046.75
2022-10-29T07:18:06.952Z,102054.91
2022-10-29T07:20:37.022Z,102053.66
2022-10-29T07:23:04.620Z,102044.97
2022-10-29T07:25:32.627Z,102052.41
2022-10-29T07:28:18.367Z,102049.53
2022-10-29T07:30:46.016Z,102054.50
2022-10-29T07:33:14.719Z,102059.38
2022-10-29T07:35:42.628Z,102071.88
2022-10-29T07:38:12.569Z,102072.75
2022-10-29T07:40:48.067Z,102069.72
2022-10-29T07:43:17.377Z,102069.06
2022-10-29T07:45:46.481Z,102077.56
2022-10-29T07:48:14.003Z,102077.06
2022-10-29T07:50:42.294Z,102075.22
2022-10-29T07:53:10.591Z,102075.59
2022-10-29T07:55:38.285Z,102075.53
2022-10-29T07:58:10.851Z,102083.88
2022-10-29T08:00:40.550Z,102080.41
2022-10-29T08:03:10.612Z,102080.28
2022-10-29T08:05:38.493Z,102079.56
2022-10-29T08:08:06.859Z,102076.53
2022-10-29T08:10:36.126Z,102082.97
2022-10-29T08:13:05.591Z,102087.09
2022-10-29T08:15:35.064Z,102075.38
2022-10-29T08:18:04.901Z,102078.72
2022-10-29T08:20:32.862Z,102071.91
2022-10-29T08:23:01.249Z,102066.16
2022-10-29T08:25:29.523Z,102077.41
2022-10-29T08:28:05.287Z,102074.25
2022-10-29T08:30:34.977Z,102077.84
2022-10-29T08:33:04.691Z,102075.84
2022-10-29T08:35:33.631Z,102071.03
2022-10-29T08:38:01.213Z,102073.19
2022-10-29T08:41:01.718Z,102071.69
2022-10-29T08:43:43.257Z,102073.22
2022-10-29T08:46:38.306Z,102075.88
2022-10-29T08:49:23.672Z,102067.16
2022-10-29T08:51:58.668Z,102079.78
2022-10-29T08:54:32.333Z,102078.84
2022-10-29T08:57:08.302Z,102080.47
2022-10-29T08:59:45.173Z,102067.81
2022-10-29T09:02:17.904Z,102058.34
2022-10-29T09:04:46.141Z,102063.31
2022-10-29T09:07:46.557Z,102059.59
2022-10-29T09:10:32.215Z,102057.94
2022-10-29T09:13:27.513Z,102057.47
2022-10-29T09:16:10.316Z,102061.63
2022-10-29T09:19:07.183Z,102047.19
2022-10-29T09:21:51.818Z,102056.41
2022-10-29T09:24:29.889Z,102045.47
2022-10-29T09:27:08.218Z,102047.84
2022-10-29T09:29:47.510Z,102050.03
2022-10-29T09:32:28.616Z,102039.66
2022-10-29T09:35:03.338Z,102050.28
2022-10-29T09:37:39.788Z,102050.56
2022-10-29T09:40:48.038Z,102044.88
2022-10-29T09:43:42.587Z,102044.59
2022-10-29T09:46:25.405Z,102047.75
2022-10-29T09:49:01.469Z,102039.09
2022-10-29T09:51:58.308Z,102040.06
2022-10-29T09:54:29.153Z,102043.66
2022-10-29T09:57:00.600Z,102042.41
2022-10-29T09:59:44.710Z,102038.41
2022-10-29T10:02:55.491Z,102036.56
2022-10-29T10:05:27.529Z,102031.13
2022-10-29T10:08:12.610Z,102031.88
2022-10-29T10:10:51.905Z,102023.03
2022-10-29T10:13:26.131Z,102022.06
2022-10-29T10:15:57.774Z,102024.88
2022-10-29T10:18:38.496Z,102019.94
2022-10-29T10:21:14.736Z,102018.13
2022-10-29T10:23:53.528Z,102019.94
2022-10-29T10:26:33.978Z,102011.38
2022-10-29T10:29:10.989Z,102001.16
2022-10-29T10:31:40.084Z,101998.41
2022-10-29T10:34:21.078Z,102013.16
2022-10-29T10:36:53.046Z,102007.41
2022-10-29T10:39:34.989Z,101994.22
2022-10-29T10:42:15.708Z,101989.50
2022-10-29T10:44:49.443Z,101991.13
2022-10-29T10:47:20.666Z,101992.50
2022-10-29T10:49:49.592Z,101982.22
2022-10-29T10:52:19.756Z,101985.41
2022-10-29T10:55:00.745Z,101984.69
2022-10-29T10:57:54.146Z,101980.03
2022-10-29T11:00:22.838Z,101973.50
2022-10-29T11:03:08.940Z,101975.56
2022-10-29T11:06:24.690Z,101974.19
2022-10-29T11:09:06.968Z,101972.66
2022-10-29T11:11:43.592Z,101965.75
2022-10-29T11:14:30.678Z,101961.09
2022-10-29T11:17:01.267Z,101957.44
2022-10-29T11:19:36.888Z,101958.00
2022-10-29T11:22:47.645Z,101967.09
2022-10-29T11:25:22.352Z,101959.09
2022-10-29T11:27:59.464Z,101962.66
2022-10-29T11:30:31.289Z,101961.69
2022-10-29T11:33:24.236Z,101951.13
2022-10-29T11:36:07.395Z,101943.22
2022-10-29T11:38:45.899Z,101942.06
2022-10-29T11:41:37.037Z,101933.19
2022-10-29T11:44:12.857Z,101936.13
2022-10-29T11:47:08.324Z,101921.59
2022-10-29T11:49:44.725Z,101923.88
2022-10-29T11:52:15.453Z,101918.22
2022-10-29T11:55:07.091Z,101916.00
2022-10-29T11:58:05.020Z,101905.22
2022-10-29T12:01:24.818Z,101909.44
2022-10-29T12:03:58.404Z,101900.59
2022-10-29T12:06:37.578Z,101899.84
2022-10-29T12:09:33.856Z,101895.66
2022-10-29T12:12:17.227Z,101892.06
2022-10-29T12:14:49.703Z,101893.50
2022-10-29T12:17:25.569Z,101892.59
2022-10-29T12:20:25.161Z,101877.72
2022-10-29T12:23:12.030Z,101876.25
2022-10-29T12:25:51.830Z,101879.00
2022-10-29T12:28:27.007Z,101878.75
2022-10-29T12:31:03.089Z,101871.28
2022-10-29T12:33:45.126Z,101865.00
2022-10-29T12:36:28.721Z,101867.53
2022-10-29T12:38:57.900Z,101860.06
2022-10-29T12:41:34.692Z,101858.31
2022-10-29T12:44:46.195Z,101847.34
2022-10-29T12:47:16.939Z,101847.44
2022-10-29T12:50:12.255Z,101845.19
2022-10-29T12:53:28.641Z,101844.47
2022-10-29T12:55:58.379Z,101833.84
2022-10-29T12:58:52.812Z,101824.25
2022-10-29T13:01:50.224Z,101823.53
2022-10-29T13:04:34.269Z,101828.06
2022-10-29T13:07:06.886Z,101821.34
2022-10-29T13:09:36.504Z,101824.31
2022-10-29T13:12:06.174Z,101812.22
2022-10-29T13:14:37.610Z,101815.63
2022-10-29T13:17:24.073Z,101804.88
2022-10-29T13:20:06.535Z,101810.38
2022-10-29T13:22:56.238Z,101807.34
2022-10-29T13:25:42.362Z,101803.28
2022-10-29T13:28:09.969Z,101800.06
2022-10-29T13:30:42.400Z,101794.13
2022-10-29T13:33:28.826Z,101799.13
2022-10-29T13:36:25.712Z,101797.56
2022-10-29T13:39:04.452Z,101801.53
2022-10-29T13:41:45.039Z,101788.97
2022-10-29T13:44:24.710Z,101786.09
2022-10-29T13:46:57.410Z,101780.38
2022-10-29T13:49:31.046Z,101781.94
2022-10-29T13:52:03.004Z,101778.69
2022-10-29T13:54:47.165Z,101784.22
2022-10-29T13:57:21.887Z,101773.63
2022-10-29T13:59:49.831Z,101768.78
2022-10-29T14:02:44.688Z,101766.72
2022-10-29T14:05:15.699Z,101774.00
2022-10-29T14:08:28.432Z,101776.63
2022-10-29T14:10:59.597Z,101763.31
2022-10-29T14:13:31.980Z,101765.38
2022-10-29T14:16:12.230Z,101768.25
2022-10-29T14:18:47.420Z,101773.31
2022-10-29T14:21:17.124Z,101769.31
2022-10-29T14:24:20.555Z,101773.50
2022-10-29T14:26:48.738Z,101762.31
2022-10-29T14:29:22.161Z,101767.97
2022-10-29T14:32:13.055Z,101775.91
2022-10-29T14:34:42.689Z,101770.75
2022-10-29T14:37:28.754Z,101771.53
2022-10-29T14:40:02.323Z,101764.50
2022-10-29T14:42:55.996Z,101769.72
2022-10-29T14:45:28.606Z,101764.03
2022-10-29T14:47:59.112Z,101773.97
2022-10-29T14:50:29.342Z,101774.41
2022-10-29T14:53:01.691Z,101772.59
2022-10-29T14:55:42.058Z,101777.94
2022-10-29T14:58:12.551Z,101781.78
2022-10-29T15:00:54.753Z,101781.25
2022-10-29T15:03:24.879Z,101780.63
2022-10-29T15:05:52.719Z,101786.16
2022-10-29T15:08:25.155Z,101790.03
2022-10-29T15:10:56.680Z,101785.53
2022-10-29T15:13:34.591Z,101779.91
2022-10-29T15:16:20.501Z,101781.84
2022-10-29T15:18:53.754Z,101794.31
2022-10-29T15:21:27.101Z,101786.38
2022-10-29T15:24:09.497Z,101793.75
2022-10-29T15:26:47.633Z,101785.31
2022-10-29T15:29:27.886Z,101791.59
2022-10-29T15:31:58.623Z,101791.25
2022-10-29T15:34:33.237Z,101790.06
2022-10-29T15:37:23.778Z,101798.34
2022-10-29T15:39:57.635Z,101800.78
2022-10-29T15:42:28.268Z,101792.09
2022-10-29T15:45:24.447Z,101794.13
2022-10-29T15:48:36.254Z,101791.44
2022-10-29T15:51:05.037Z,101799.13
2022-10-29T15:53:33.610Z,101796.59
2022-10-29T15:56:03.931Z,101801.06
2022-10-29T15:58:33.246Z,101798.63
2022-10-29T16:01:00.848Z,101796.31
2022-10-29T16:03:28.618Z,101803.94
2022-10-29T16:06:01.786Z,101803.28
2022-10-29T16:08:33.541Z,101801.50
2022-10-29T16:11:03.324Z,101804.03
2022-10-29T16:13:32.879Z,101798.88
2022-10-29T16:16:01.310Z,101799.09
2022-10-29T16:18:29.358Z,101800.31
2022-10-29T16:21:04.798Z,101802.34
2022-10-29T16:23:37.395Z,101797.41
2022-10-29T16:26:05.516Z,101803.09
2022-10-29T16:28:33.018Z,101802.78
2022-10-29T16:31:00.691Z,101807.38
2022-10-29T16:33:28.853Z,101800.81
2022-10-29T16:35:56.445Z,101806.16
2022-10-29T16:38:23.971Z,101810.28
2022-10-29T16:40:51.628Z,101819.06
2022-10-29T16:43:19.141Z,101814.25
2022-10-29T16:45:46.797Z,101816.97
2022-10-29T16:48:14.395Z,101812.94
2022-10-29T16:50:41.913Z,101811.84
2022-10-29T16:53:12.895Z,101815.94
2022-10-29T16:55:41.570Z,101814.41
2022-10-29T16:58:12.444Z,101810.06
2022-10-29T17:00:40.217Z,101809.47
2022-10-29T17:03:12.408Z,101807.25
2022-10-29T17:05:45.658Z,101814.00
2022-10-29T17:08:13.759Z,101813.16
2022-10-29T17:10:41.403Z,101817.22
2022-10-29T17:13:11.771Z,101817.94
2022-10-29T17:15:42.690Z,101817.50
2022-10-29T17:18:10.768Z,101815.41
2022-10-29T17:20:38.255Z,101806.81
2022-10-29T17:23:05.785Z,101815.81
2022-10-29T17:25:33.414Z,101824.59
2022-10-29T17:28:02.171Z,101814.47
2022-10-29T17:30:29.557Z,101821.91
2022-10-29T17:32:57.276Z,101824.72
2022-10-29T17:35:25.087Z,101823.97
2022-10-29T17:37:52.707Z,101826.22
2022-10-29T17:40:20.425Z,101833.66
2022-10-29T17:42:48.395Z,101833.91
2022-10-29T17:45:20.547Z,101840.91
2022-10-29T17:47:48.473Z,101837.59
2022-10-29T17:50:16.246Z,101831.84
2022-10-29T17:52:43.792Z,101836.53
2022-10-29T17:55:11.360Z,101838.19
2022-10-29T17:57:39.254Z,101837.06
2022-10-29T18:00:07.498Z,101836.75
2022-10-29T18:02:35.079Z,101836.44
2022-10-29T18:05:03.158Z,101845.25
2022-10-29T18:07:31.110Z,101842.72
2022-10-29T18:09:58.756Z,101849.56
2022-10-29T18:12:26.308Z,101840.69
2022-10-29T18:14:53.819Z,101844.16
2022-10-29T18:17:21.390Z,101847.88
2022-10-29T18:19:49.414Z,101843.81
2022-10-29T18:22:17.011Z,101848.38
2022-10-29T18:24:44.649Z,101847.28
2022-10-29T18:27:12.593Z,101841.78
2022-10-29T18:29:40.122Z,101845.78
2022-10-29T18:32:07.690Z,101845.28
2022-10-29T18:34:36.433Z,101842.84
2022-10-29T18:37:04.085Z,101837.09
2022-10-29T18:39:31.750Z,101847.97
2022-10-29T18:41:59.642Z,101844.28
2022-10-29T18:44:27.233Z,101848.50
2022-10-29T18:46:55.240Z,101840.69
2022-10-29T18:49:23.432Z,101838.88
2022-10-29T18:51:53.719Z,101840.81
2022-10-29T18:54:21.533Z,101842.13
2022-10-29T18:56:49.105Z,101832.34
2022-10-29T18:59:17.102Z,101830.81
2022-10-29T19:01:44.667Z,101826.75
2022-10-29T19:04:15.811Z,101832.19
2022-10-29T19:06:43.821Z,101836.16
2022-10-29T19:09:12.265Z,101837.53
2022-10-29T19:11:40.701Z,101834.63
2022-10-29T19:14:13.013Z,101831.91
2022-10-29T19:16:40.719Z,101829.31
2022-10-29T19:19:11.986Z,101833.53
2022-10-29T19:21:40.502Z,101833.16
2022-10-29T19:24:08.714Z,101829.66
2022-10-29T19:26:36.885Z,101825.09
2022-10-29T19:29:05.919Z,101833.16
2022-10-29T19:31:35.674Z,101835.16
2022-10-29T19:34:06.381Z,101830.91
2022-10-29T19:36:36.531Z,101830.06
2022-10-29T19:39:05.086Z,101829.09
2022-10-29T19:41:33.428Z,101832.63
2022-10-29T19:44:02.637Z,101827.06
2022-10-29T19:46:30.644Z,101825.50
2022-10-29T19:48:59.375Z,101821.16
2022-10-29T19:51:27.107Z,101824.66
2022-10-29T19:53:57.755Z,101826.00
2022-10-29T19:56:25.690Z,101828.53
2022-10-29T19:58:53.237Z,101831.78
2022-10-29T20:01:20.773Z,101823.84
2022-10-29T20:03:48.597Z,101829.00
2022-10-29T20:06:17.996Z,101841.34
2022-10-29T20:08:45.744Z,101832.16
2022-10-29T20:11:13.728Z,101833.34
2022-10-29T20:13:42.057Z,101827.22
2022-10-29T20:16:18.926Z,101829.16
2022-10-29T20:18:47.251Z,101837.97
2022-10-29T20:21:15.590Z,101831.22
2022-10-29T20:23:44.759Z,101835.16
2022-10-29T20:26:12.801Z,101840.13
2022-10-29T20:28:40.275Z,101839.41
2022-10-29T20:31:18.473Z,101840.75
2022-10-29T20:33:59.189Z,101834.94
2022-10-29T20:36:32.382Z,101836.88
2022-10-29T20:39:00.224Z,101840.47
2022-10-29T20:41:29.006Z,101841.16
2022-10-29T20:43:59.767Z,101829.34
2022-10-29T20:46:28.015Z,101838.38
2022-10-29T20:48:55.786Z,101848.13
2022-10-29T20:51:25.019Z,101843.25
2022-10-29T20:53:54.375Z,101843.25
2022-10-29T20:56:24.938Z,101843.94
2022-10-29T20:58:53.356Z,101843.78
2022-10-29T21:01:23.017Z,101844.38
2022-10-29T21:03:51.130Z,101839.78
2022-10-29T21:06:19.733Z,101838.91
2022-10-29T21:08:48.838Z,101845.16
2022-10-29T21:11:17.830Z,101846.13
2022-10-29T21:13:46.500Z,101850.13
2022-10-29T21:16:22.358Z,101841.06
2022-10-29T21:18:53.140Z,101844.91
2022-10-29T21:21:20.718Z,101840.25
2022-10-29T21:23:48.682Z,101841.22
2022-10-29T21:26:21.810Z,101846.84
2022-10-29T21:28:50.501Z,101849.75
2022-10-29T21:31:18.990Z,101848.22
2022-10-29T21:33:50.491Z,101844.81
2022-10-29T21:36:18.845Z,101848.38
2022-10-29T21:38:48.167Z,101846.81
2022-10-29T21:41:16.758Z,101845.25
2022-10-29T21:43:44.841Z,101850.78
2022-10-29T21:46:12.600Z,101842.13
2022-10-29T21:48:40.190Z,101844.31
2022-10-29T21:51:10.835Z,101835.63
2022-10-29T21:53:38.695Z,101840.75
2022-10-29T21:56:08.558Z,101839.91
2022-10-29T21:58:36.567Z,101842.66
2022-10-29T22:01:09.709Z,101836.19
2022-10-29T22:03:40.703Z,101845.31
2022-10-29T22:06:22.709Z,101842.28
2022-10-29T22:08:58.174Z,101837.84
2022-10-29T22:11:27.566Z,101834.66
2022-10-29T22:13:56.122Z,101831.56
2022-10-29T22:16:23.766Z,101825.38
2022-10-29T22:18:51.313Z,101833.28
2022-10-29T22:21:22.378Z,101824.16
2022-10-29T22:23:52.394Z,101821.81
2022-10-29T22:26:22.744Z,101824.00
2022-10-29T22:28:50.707Z,101822.16
2022-10-29T22:31:20.271Z,101819.66
2022-10-29T22:33:48.536Z,101819.53
2022-10-29T22:36:19.470Z,101819.75
2022-10-29T22:38:52.737Z,101817.53
2022-10-29T22:41:20.425Z,101830.34
2022-10-29T22:43:48.277Z,101817.84
2022-10-29T22:46:17.433Z,101820.72
2022-10-29T22:48:45.161Z,101817.34
2022-10-29T22:51:18.759Z,101816.81
2022-10-29T22:53:46.908Z,101809.25
2022-10-29T22:56:16.686Z,101808.50
2022-10-29T22:58:45.312Z,101803.66
2022-10-29T23:01:16.537Z,101806.47
2022-10-29T23:03:45.254Z,101805.03
2022-10-29T23:06:17.837Z,101803.34
2022-10-29T23:08:46.516Z,101804.19
2022-10-29T23:11:20.823Z,101799.63
2022-10-29T23:13:50.555Z,101797.09
2022-10-29T23:16:19.111Z,101795.00
2022-10-29T23:18:55.695Z,101796.56
2022-10-29T23:21:23.406Z,101795.06
2022-10-29T23:23:51.553Z,101803.66
2022-10-29T23:26:20.767Z,101797.00
2022-10-29T23:28:49.247Z,101790.66
2022-10-29T23:31:19.550Z,101794.72
2022-10-29T23:33:49.414Z,101792.41
2022-10-29T23:36:18.661Z,101789.63
2022-10-29T23:38:46.427Z,101799.25
2022-10-29T23:41:14.874Z,101791.22
2022-10-29T23:43:42.672Z,101791.38
2022-10-29T23:46:10.823Z,101793.06
2022-10-29T23:48:38.359Z,101792.75
2022-10-29T23:51:05.993Z,101786.53
2022-10-29T23:53:33.547Z,101788.88
2022-10-29T23:56:01.011Z,101786.59
2022-10-29T23:58:28.662Z,101783.69
